sensor_id;sensor_type;location;lat;lon;timestamp;pressure;altitude;pressure_sealevel;temperature;humidity
54453;BME280;40363;52.270;10.546;2023-01-28T00:00:14;78977.06;;;-147.06;84.75
54453;BME280;40363;52.270;10.546;2023-01-28T00:02:42;78985.28;;;-147.06;84.61
54453;BME280;40363;52.270;10.546;2023-01-28T00:05:09;78977.06;;;-147.06;84.71
54453;BME280;40363;52.270;10.546;2023-01-28T00:07:36;78981.19;;;-147.06;84.92
54453;BME280;40363;52.270;10.546;2023-01-28T00:10:03;78985.28;;;-147.06;84.66
54453;BME280;40363;52.270;10.546;2023-01-28T00:12:30;78981.19;;;-147.06;84.78
54453;BME280;40363;52.270;10.546;2023-01-28T00:14:57;78977.06;;;-147.06;84.90
54453;BME280;40363;52.270;10.546;2023-01-28T00:17:23;78987.34;;;-147.06;84.80
54453;BME280;40363;52.270;10.546;2023-01-28T00:19:51;78991.47;;;-147.06;84.50
54453;BME280;40363;52.270;10.546;2023-01-28T00:22:18;78999.69;;;-147.06;85.46
54453;BME280;40363;52.270;10.546;2023-01-28T00:24:45;79003.81;;;-147.06;85.87
54453;BME280;40363;52.270;10.546;2023-01-28T00:27:11;78991.47;;;-147.06;85.87
54453;BME280;40363;52.270;10.546;2023-01-28T00:29:38;78985.28;;;-147.06;85.76
54453;BME280;40363;52.270;10.546;2023-01-28T00:32:05;78975.00;;;-147.06;84.96
54453;BME280;40363;52.270;10.546;2023-01-28T00:34:31;78962.66;;;-147.06;85.13
54453;BME280;40363;52.270;10.546;2023-01-28T00:36:59;78948.28;;;-147.06;84.75
54453;BME280;40363;52.270;10.546;2023-01-28T00:39:26;78954.44;;;-147.06;84.56
54453;BME280;40363;52.270;10.546;2023-01-28T00:41:53;78952.38;;;-147.06;84.39
54453;BME280;40363;52.270;10.546;2023-01-28T00:44:20;78952.38;;;-147.06;84.66
54453;BME280;40363;52.270;10.546;2023-01-28T00:46:47;78950.34;;;-147.06;83.86
54453;BME280;40363;52.270;10.546;2023-01-28T00:49:13;78940.03;;;-147.06;83.63
54453;BME280;40363;52.270;10.546;2023-01-28T00:51:40;78925.66;;;-147.06;83.39
54453;BME280;40363;52.270;10.546;2023-01-28T00:54:10;78935.94;;;-147.06;83.39
54453;BME280;40363;52.270;10.546;2023-01-28T00:56:37;78944.16;;;-147.06;83.13
54453;BME280;40363;52.270;10.546;2023-01-28T00:59:04;78946.22;;;-147.06;84.02
54453;BME280;40363;52.270;10.546;2023-01-28T01:01:30;78946.22;;;-147.06;84.13
54453;BME280;40363;52.270;10.546;2023-01-28T01:03:57;78944.16;;;-147.06;83.91
54453;BME280;40363;52.270;10.546;2023-01-28T01:06:28;78940.03;;;-147.06;82.91
54453;BME280;40363;52.270;10.546;2023-01-28T01:08:54;78938.00;;;-147.06;82.87
54453;BME280;40363;52.270;10.546;2023-01-28T01:11:22;78935.94;;;-147.06;83.01
54453;BME280;40363;52.270;10.546;2023-01-28T01:13:51;78940.03;;;-147.06;82.60
54453;BME280;40363;52.270;10.546;2023-01-28T01:16:19;78935.94;;;-147.06;82.60
54453;BME280;40363;52.270;10.546;2023-01-28T01:18:46;78940.03;;;-147.06;82.54
54453;BME280;40363;52.270;10.546;2023-01-28T01:21:14;78940.03;;;-147.06;81.69
54453;BME280;40363;52.270;10.546;2023-01-28T01:23:42;78935.94;;;-147.06;81.79
54453;BME280;40363;52.270;10.546;2023-01-28T01:26:09;78931.81;;;-147.06;81.52
54453;BME280;40363;52.270;10.546;2023-01-28T01:28:38;78929.75;;;-147.06;82.26
54453;BME280;40363;52.270;10.546;2023-01-28T01:31:06;78931.81;;;-147.06;82.35
54453;BME280;40363;52.270;10.546;2023-01-28T01:33:33;78938.00;;;-147.06;81.92
54453;BME280;40363;52.270;10.546;2023-01-28T01:36:00;78940.03;;;-147.06;82.00
54453;BME280;40363;52.270;10.546;2023-01-28T01:38:27;78948.28;;;-147.06;81.85
54453;BME280;40363;52.270;10.546;2023-01-28T01:40:55;78950.34;;;-147.06;81.86
54453;BME280;40363;52.270;10.546;2023-01-28T01:43:23;78948.28;;;-147.06;81.83
54453;BME280;40363;52.270;10.546;2023-01-28T01:45:55;78944.16;;;-147.06;81.50
54453;BME280;40363;52.270;10.546;2023-01-28T01:48:27;78935.94;;;-147.06;81.28
54453;BME280;40363;52.270;10.546;2023-01-28T01:50:59;78931.81;;;-147.06;81.17
54453;BME280;40363;52.270;10.546;2023-01-28T01:53:27;78933.88;;;-147.06;80.94
54453;BME280;40363;52.270;10.546;2023-01-28T01:55:58;78931.81;;;-147.06;80.79
54453;BME280;40363;52.270;10.546;2023-01-28T01:58:29;78927.72;;;-147.06;81.11
54453;BME280;40363;52.270;10.546;2023-01-28T02:00:58;78933.88;;;-147.06;80.66
54453;BME280;40363;52.270;10.546;2023-01-28T02:03:28;78933.88;;;-147.06;80.30
54453;BME280;40363;52.270;10.546;2023-01-28T02:05:57;78935.94;;;-147.06;80.17
54453;BME280;40363;52.270;10.546;2023-01-28T02:08:23;78935.94;;;-147.06;80.02
54453;BME280;40363;52.270;10.546;2023-01-28T02:10:54;78931.81;;;-147.06;80.20
54453;BME280;40363;52.270;10.546;2023-01-28T02:13:24;78935.94;;;-147.06;79.88
54453;BME280;40363;52.270;10.546;2023-01-28T02:15:54;78938.00;;;-147.06;79.80
54453;BME280;40363;52.270;10.546;2023-01-28T02:18:22;78929.75;;;-147.06;79.56
54453;BME280;40363;52.270;10.546;2023-01-28T02:21:05;78927.72;;;-147.06;79.74
54453;BME280;40363;52.270;10.546;2023-01-28T02:23:49;78933.88;;;-147.06;78.95
54453;BME280;40363;52.270;10.546;2023-01-28T02:26:50;78931.81;;;-147.06;79.10
54453;BME280;40363;52.270;10.546;2023-01-28T02:29:25;78931.81;;;-147.06;79.13
54453;BME280;40363;52.270;10.546;2023-01-28T02:31:59;78935.94;;;-147.06;78.70
54453;BME280;40363;52.270;10.546;2023-01-28T02:34:34;78944.16;;;-147.06;79.08
54453;BME280;40363;52.270;10.546;2023-01-28T02:37:08;78946.22;;;-147.06;78.65
54453;BME280;40363;52.270;10.546;2023-01-28T02:39:41;78940.03;;;-147.06;77.63
54453;BME280;40363;52.270;10.546;2023-01-28T02:42:11;78940.03;;;-147.06;77.99
54453;BME280;40363;52.270;10.546;2023-01-28T02:44:42;78940.03;;;-147.06;77.98
54453;BME280;40363;52.270;10.546;2023-01-28T02:47:09;78940.03;;;-147.06;77.65
54453;BME280;40363;52.270;10.546;2023-01-28T02:49:56;78935.94;;;-147.06;77.93
54453;BME280;40363;52.270;10.546;2023-01-28T02:52:34;78944.16;;;-147.06;78.13
54453;BME280;40363;52.270;10.546;2023-01-28T02:55:29;78942.09;;;-147.06;78.20
54453;BME280;40363;52.270;10.546;2023-01-28T02:58:04;78933.88;;;-147.06;77.91
54453;BME280;40363;52.270;10.546;2023-01-28T03:00:42;78935.94;;;-147.06;75.63
54453;BME280;40363;52.270;10.546;2023-01-28T03:03:15;78931.81;;;-147.06;76.35
54453;BME280;40363;52.270;10.546;2023-01-28T03:05:49;78927.72;;;-147.06;76.95
54453;BME280;40363;52.270;10.546;2023-01-28T03:08:33;78919.47;;;-147.06;74.49
54453;BME280;40363;52.270;10.546;2023-01-28T03:11:18;78919.47;;;-147.06;73.78
54453;BME280;40363;52.270;10.546;2023-01-28T03:14:04;78919.47;;;-147.06;71.80
54453;BME280;40363;52.270;10.546;2023-01-28T03:16:50;78890.69;;;-147.06;68.42
54453;BME280;40363;52.270;10.546;2023-01-28T03:19:35;78886.56;;;-147.06;68.81
54453;BME280;40363;52.270;10.546;2023-01-28T03:22:20;78896.84;;;-147.06;71.88
54453;BME280;40363;52.270;10.546;2023-01-28T03:25:07;78894.81;;;-147.06;69.36
54453;BME280;40363;52.270;10.546;2023-01-28T03:27:55;78905.09;;;-147.06;70.16
54453;BME280;40363;52.270;10.546;2023-01-28T03:30:42;78903.03;;;-147.06;70.15
54453;BME280;40363;52.270;10.546;2023-01-28T03:33:29;78892.75;;;-147.06;67.86
54453;BME280;40363;52.270;10.546;2023-01-28T03:36:14;78894.81;;;-147.06;69.39
54453;BME280;40363;52.270;10.546;2023-01-28T03:38:59;78911.25;;;-147.06;70.69
54453;BME280;40363;52.270;10.546;2023-01-28T03:41:26;78913.31;;;-147.06;72.21
54453;BME280;40363;52.270;10.546;2023-01-28T03:43:54;78935.94;;;-147.06;73.83
54453;BME280;40363;52.270;10.546;2023-01-28T03:46:21;78925.66;;;-147.06;73.60
54453;BME280;40363;52.270;10.546;2023-01-28T03:48:49;78923.59;;;-147.06;75.65
54453;BME280;40363;52.270;10.546;2023-01-28T03:51:15;78923.59;;;-147.06;75.35
54453;BME280;40363;52.270;10.546;2023-01-28T03:53:42;78923.59;;;-147.06;73.04
54453;BME280;40363;52.270;10.546;2023-01-28T03:56:08;78931.81;;;-147.06;72.96
54453;BME280;40363;52.270;10.546;2023-01-28T03:58:42;78935.94;;;-147.06;73.09
54453;BME280;40363;52.270;10.546;2023-01-28T04:01:18;78923.59;;;-147.06;72.41
54453;BME280;40363;52.270;10.546;2023-01-28T04:03:44;78923.59;;;-147.06;73.34
54453;BME280;40363;52.270;10.546;2023-01-28T04:06:12;78921.53;;;-147.06;73.86
54453;BME280;40363;52.270;10.546;2023-01-28T04:08:39;78935.94;;;-147.06;73.40
54453;BME280;40363;52.270;10.546;2023-01-28T04:11:13;78933.88;;;-147.06;74.85
54453;BME280;40363;52.270;10.546;2023-01-28T04:13:44;78917.44;;;-147.06;73.73
54453;BME280;40363;52.270;10.546;2023-01-28T04:16:12;78919.47;;;-147.06;73.24
54453;BME280;40363;52.270;10.546;2023-01-28T04:18:39;78929.75;;;-147.06;73.21
54453;BME280;40363;52.270;10.546;2023-01-28T04:21:05;78929.75;;;-147.06;73.42
54453;BME280;40363;52.270;10.546;2023-01-28T04:23:33;78919.47;;;-147.06;71.75
54453;BME280;40363;52.270;10.546;2023-01-28T04:26:00;78940.03;;;-147.06;73.37
54453;BME280;40363;52.270;10.546;2023-01-28T04:28:28;78944.16;;;-147.06;71.03
54453;BME280;40363;52.270;10.546;2023-01-28T04:30:55;78935.94;;;-147.06;71.48
54453;BME280;40363;52.270;10.546;2023-01-28T04:33:22;78931.81;;;-147.06;72.35
54453;BME280;40363;52.270;10.546;2023-01-28T04:35:48;78935.94;;;-147.06;73.04
54453;BME280;40363;52.270;10.546;2023-01-28T04:38:15;78944.16;;;-147.06;73.37
54453;BME280;40363;52.270;10.546;2023-01-28T04:40:43;78950.34;;;-147.06;73.47
54453;BME280;40363;52.270;10.546;2023-01-28T04:43:09;78956.50;;;-147.06;73.98
54453;BME280;40363;52.270;10.546;2023-01-28T04:45:36;78944.16;;;-147.06;73.75
54453;BME280;40363;52.270;10.546;2023-01-28T04:48:02;78948.28;;;-147.06;73.63
54453;BME280;40363;52.270;10.546;2023-01-28T04:50:29;78948.28;;;-147.06;73.33
54453;BME280;40363;52.270;10.546;2023-01-28T04:52:56;78950.34;;;-147.06;73.17
54453;BME280;40363;52.270;10.546;2023-01-28T04:55:23;78944.16;;;-147.06;72.72
54453;BME280;40363;52.270;10.546;2023-01-28T04:57:51;78948.28;;;-147.06;73.83
54453;BME280;40363;52.270;10.546;2023-01-28T05:00:18;78950.34;;;-147.06;73.54
54453;BME280;40363;52.270;10.546;2023-01-28T05:02:45;78956.50;;;-147.06;73.63
54453;BME280;40363;52.270;10.546;2023-01-28T05:05:11;78944.16;;;-147.06;71.66
54453;BME280;40363;52.270;10.546;2023-01-28T05:07:38;78948.28;;;-147.06;72.35
54453;BME280;40363;52.270;10.546;2023-01-28T05:10:05;78956.50;;;-147.06;71.99
54453;BME280;40363;52.270;10.546;2023-01-28T05:12:32;78960.63;;;-147.06;71.46
54453;BME280;40363;52.270;10.546;2023-01-28T05:15:00;78977.06;;;-147.06;72.97
54453;BME280;40363;52.270;10.546;2023-01-28T05:17:27;78968.84;;;-147.06;73.25
54453;BME280;40363;52.270;10.546;2023-01-28T05:19:53;78968.84;;;-147.06;73.32
54453;BME280;40363;52.270;10.546;2023-01-28T05:22:20;78964.72;;;-147.06;72.93
54453;BME280;40363;52.270;10.546;2023-01-28T05:24:46;78958.56;;;-147.06;72.92
54453;BME280;40363;52.270;10.546;2023-01-28T05:27:13;78968.84;;;-147.06;71.14
54453;BME280;40363;52.270;10.546;2023-01-28T05:29:40;78952.38;;;-147.06;68.81
54453;BME280;40363;52.270;10.546;2023-01-28T05:32:08;78946.22;;;-147.06;67.81
54453;BME280;40363;52.270;10.546;2023-01-28T05:34:34;78935.94;;;-147.06;68.01
54453;BME280;40363;52.270;10.546;2023-01-28T05:37:01;78944.16;;;-147.06;68.61
54453;BME280;40363;52.270;10.546;2023-01-28T05:39:27;78960.63;;;-147.06;67.42
54453;BME280;40363;52.270;10.546;2023-01-28T05:41:54;78972.94;;;-147.06;66.36
54453;BME280;40363;52.270;10.546;2023-01-28T05:44:21;78962.66;;;-147.06;66.25
54453;BME280;40363;52.270;10.546;2023-01-28T05:46:47;78962.66;;;-147.06;66.74
54453;BME280;40363;52.270;10.546;2023-01-28T05:49:15;78954.44;;;-147.06;67.02
54453;BME280;40363;52.270;10.546;2023-01-28T05:51:42;78964.72;;;-147.06;67.93
54453;BME280;40363;52.270;10.546;2023-01-28T05:54:08;78968.84;;;-147.06;67.86
54453;BME280;40363;52.270;10.546;2023-01-28T05:56:35;78977.06;;;-147.06;67.75
54453;BME280;40363;52.270;10.546;2023-01-28T05:59:02;78966.78;;;-147.06;68.12
54453;BME280;40363;52.270;10.546;2023-01-28T06:01:30;78960.63;;;-147.06;68.72
54453;BME280;40363;52.270;10.546;2023-01-28T06:03:57;78956.50;;;-147.06;68.93
54453;BME280;40363;52.270;10.546;2023-01-28T06:06:26;78962.66;;;-147.06;68.47
54453;BME280;40363;52.270;10.546;2023-01-28T06:08:52;78964.72;;;-147.06;69.32
54453;BME280;40363;52.270;10.546;2023-01-28T06:11:19;78958.56;;;-147.06;69.63
54453;BME280;40363;52.270;10.546;2023-01-28T06:13:45;78960.63;;;-147.06;69.48
54453;BME280;40363;52.270;10.546;2023-01-28T06:16:12;78960.63;;;-147.06;69.13
54453;BME280;40363;52.270;10.546;2023-01-28T06:18:38;78960.63;;;-147.06;69.43
54453;BME280;40363;52.270;10.546;2023-01-28T06:21:06;78964.72;;;-147.06;69.34
54453;BME280;40363;52.270;10.546;2023-01-28T06:23:34;78954.44;;;-147.06;68.92
54453;BME280;40363;52.270;10.546;2023-01-28T06:26:01;78958.56;;;-147.06;68.80
54453;BME280;40363;52.270;10.546;2023-01-28T06:28:28;78948.28;;;-147.06;68.25
54453;BME280;40363;52.270;10.546;2023-01-28T06:30:54;78954.44;;;-147.06;69.74
54453;BME280;40363;52.270;10.546;2023-01-28T06:33:21;78948.28;;;-147.06;71.06
54453;BME280;40363;52.270;10.546;2023-01-28T06:35:48;78950.34;;;-147.06;70.39
54453;BME280;40363;52.270;10.546;2023-01-28T06:38:15;78960.63;;;-147.06;70.18
54453;BME280;40363;52.270;10.546;2023-01-28T06:40:43;78968.84;;;-147.06;70.35
54453;BME280;40363;52.270;10.546;2023-01-28T06:43:09;78977.06;;;-147.06;70.45
54453;BME280;40363;52.270;10.546;2023-01-28T06:45:36;78975.00;;;-147.06;70.33
54453;BME280;40363;52.270;10.546;2023-01-28T06:48:03;78979.13;;;-147.06;69.39
54453;BME280;40363;52.270;10.546;2023-01-28T06:50:29;78975.00;;;-147.06;68.67
54453;BME280;40363;52.270;10.546;2023-01-28T06:52:56;78970.91;;;-147.06;68.03
54453;BME280;40363;52.270;10.546;2023-01-28T06:55:22;78977.06;;;-147.06;68.59
54453;BME280;40363;52.270;10.546;2023-01-28T06:57:50;78993.53;;;-147.06;70.00
54453;BME280;40363;52.270;10.546;2023-01-28T07:00:18;79012.03;;;-147.06;70.78
54453;BME280;40363;52.270;10.546;2023-01-28T07:02:44;79018.19;;;-147.06;70.83
54453;BME280;40363;52.270;10.546;2023-01-28T07:05:11;79003.81;;;-147.06;70.02
54453;BME280;40363;52.270;10.546;2023-01-28T07:07:38;78997.63;;;-147.06;69.49
54453;BME280;40363;52.270;10.546;2023-01-28T07:10:05;78985.28;;;-147.06;69.00
54453;BME280;40363;52.270;10.546;2023-01-28T07:12:32;78991.47;;;-147.06;68.59
54453;BME280;40363;52.270;10.546;2023-01-28T07:15:00;78995.56;;;-147.06;69.72
54453;BME280;40363;52.270;10.546;2023-01-28T07:17:26;78997.63;;;-147.06;69.81
54453;BME280;40363;52.270;10.546;2023-01-28T07:19:53;78993.53;;;-147.06;68.94
54453;BME280;40363;52.270;10.546;2023-01-28T07:22:19;78989.41;;;-147.06;69.09
54453;BME280;40363;52.270;10.546;2023-01-28T07:24:46;78985.28;;;-147.06;69.50
54453;BME280;40363;52.270;10.546;2023-01-28T07:27:13;78989.41;;;-147.06;69.69
54453;BME280;40363;52.270;10.546;2023-01-28T07:29:40;78993.53;;;-147.06;68.87
54453;BME280;40363;52.270;10.546;2023-01-28T07:32:08;78989.41;;;-147.06;68.40
54453;BME280;40363;52.270;10.546;2023-01-28T07:34:34;78985.28;;;-147.06;67.78
54453;BME280;40363;52.270;10.546;2023-01-28T07:37:04;78981.19;;;-147.06;68.44
54453;BME280;40363;52.270;10.546;2023-01-28T07:39:30;78985.28;;;-147.06;67.80
54453;BME280;40363;52.270;10.546;2023-01-28T07:41:57;78981.19;;;-147.06;67.86
54453;BME280;40363;52.270;10.546;2023-01-28T07:44:24;78981.19;;;-147.06;66.28
54453;BME280;40363;52.270;10.546;2023-01-28T07:46:50;78991.47;;;-147.06;66.12
54453;BME280;40363;52.270;10.546;2023-01-28T07:49:18;78997.63;;;-147.06;66.41
54453;BME280;40363;52.270;10.546;2023-01-28T07:51:45;78991.47;;;-147.06;66.39
54453;BME280;40363;52.270;10.546;2023-01-28T07:54:14;78989.41;;;-147.06;66.10
54453;BME280;40363;52.270;10.546;2023-01-28T07:56:41;79009.97;;;-147.06;66.86
54453;BME280;40363;52.270;10.546;2023-01-28T07:59:07;79005.84;;;-147.06;65.98
54453;BME280;40363;52.270;10.546;2023-01-28T08:01:34;79026.44;;;-147.06;66.80
54453;BME280;40363;52.270;10.546;2023-01-28T08:04:00;79034.66;;;-147.06;68.09
54453;BME280;40363;52.270;10.546;2023-01-28T08:06:28;79009.97;;;-147.06;67.78
54453;BME280;40363;52.270;10.546;2023-01-28T08:08:55;79049.06;;;-147.06;66.79
54453;BME280;40363;52.270;10.546;2023-01-28T08:11:22;79042.88;;;-147.06;66.51
54453;BME280;40363;52.270;10.546;2023-01-28T08:13:48;79040.81;;;-147.06;66.68
54453;BME280;40363;52.270;10.546;2023-01-28T08:16:17;79018.19;;;-147.06;67.91
54453;BME280;40363;52.270;10.546;2023-01-28T08:18:44;79007.91;;;-147.06;66.83
54453;BME280;40363;52.270;10.546;2023-01-28T08:21:10;79012.03;;;-147.06;66.87
54453;BME280;40363;52.270;10.546;2023-01-28T08:23:38;78991.47;;;-147.06;66.43
54453;BME280;40363;52.270;10.546;2023-01-28T08:26:05;78987.34;;;-147.06;66.67
54453;BME280;40363;52.270;10.546;2023-01-28T08:28:31;78989.41;;;-147.06;66.70
54453;BME280;40363;52.270;10.546;2023-01-28T08:30:58;78997.63;;;-147.06;66.70
54453;BME280;40363;52.270;10.546;2023-01-28T08:33:25;78997.63;;;-147.06;67.19
54453;BME280;40363;52.270;10.546;2023-01-28T08:35:52;78999.69;;;-147.06;67.45
54453;BME280;40363;52.270;10.546;2023-01-28T08:38:19;79009.97;;;-147.06;67.30
54453;BME280;40363;52.270;10.546;2023-01-28T08:40:47;79016.16;;;-147.06;67.13
54453;BME280;40363;52.270;10.546;2023-01-28T08:43:15;79014.09;;;-147.06;66.88
54453;BME280;40363;52.270;10.546;2023-01-28T08:45:41;79018.19;;;-147.06;67.13
54453;BME280;40363;52.270;10.546;2023-01-28T08:48:12;79018.19;;;-147.06;66.78
54453;BME280;40363;52.270;10.546;2023-01-28T08:50:40;79032.59;;;-147.06;66.44
54453;BME280;40363;52.270;10.546;2023-01-28T08:53:10;79032.59;;;-147.06;66.39
54453;BME280;40363;52.270;10.546;2023-01-28T08:55:39;79022.31;;;-147.06;67.45
54453;BME280;40363;52.270;10.546;2023-01-28T08:58:10;79018.19;;;-147.06;64.68
54453;BME280;40363;52.270;10.546;2023-01-28T09:00:38;79003.81;;;-147.06;64.65
54453;BME280;40363;52.270;10.546;2023-01-28T09:03:05;79003.81;;;-147.06;63.69
54453;BME280;40363;52.270;10.546;2023-01-28T09:05:33;79005.84;;;-147.06;64.04
54453;BME280;40363;52.270;10.546;2023-01-28T09:08:00;79018.19;;;-147.06;64.73
54453;BME280;40363;52.270;10.546;2023-01-28T09:10:27;79018.19;;;-147.06;64.50
54453;BME280;40363;52.270;10.546;2023-01-28T09:12:54;79009.97;;;-147.06;65.04
54453;BME280;40363;52.270;10.546;2023-01-28T09:15:23;78977.06;;;-147.06;64.50
54453;BME280;40363;52.270;10.546;2023-01-28T09:17:56;78968.84;;;-147.06;64.19
54453;BME280;40363;52.270;10.546;2023-01-28T09:20:23;78960.63;;;-147.06;63.56
54453;BME280;40363;52.270;10.546;2023-01-28T09:22:50;78968.84;;;-147.06;63.20
54453;BME280;40363;52.270;10.546;2023-01-28T09:25:17;78952.38;;;-147.06;63.28
54453;BME280;40363;52.270;10.546;2023-01-28T09:27:43;78960.63;;;-147.06;63.20
54453;BME280;40363;52.270;10.546;2023-01-28T09:30:10;78956.50;;;-147.06;62.81
54453;BME280;40363;52.270;10.546;2023-01-28T09:32:39;78944.16;;;-147.06;62.86
54453;BME280;40363;52.270;10.546;2023-01-28T09:35:07;78942.09;;;-147.06;62.36
54453;BME280;40363;52.270;10.546;2023-01-28T09:37:34;78935.94;;;-147.06;62.35
54453;BME280;40363;52.270;10.546;2023-01-28T09:40:00;78938.00;;;-147.06;62.36
54453;BME280;40363;52.270;10.546;2023-01-28T09:42:38;78935.94;;;-147.06;62.15
54453;BME280;40363;52.270;10.546;2023-01-28T09:45:14;78915.38;;;-147.06;62.14
54453;BME280;40363;52.270;10.546;2023-01-28T09:47:50;78921.53;;;-147.06;62.47
54453;BME280;40363;52.270;10.546;2023-01-28T09:50:30;78923.59;;;-147.06;62.24
54453;BME280;40363;52.270;10.546;2023-01-28T09:53:03;78958.56;;;-147.06;62.00
54453;BME280;40363;52.270;10.546;2023-01-28T09:55:33;78962.66;;;-147.06;62.42
54453;BME280;40363;52.270;10.546;2023-01-28T09:58:04;78983.25;;;-147.06;62.99
54453;BME280;40363;52.270;10.546;2023-01-28T10:00:36;78999.69;;;-147.06;62.84
54453;BME280;40363;52.270;10.546;2023-01-28T10:03:18;78985.28;;;-147.06;63.25
54453;BME280;40363;52.270;10.546;2023-01-28T10:05:54;78981.19;;;-147.06;63.22
54453;BME280;40363;52.270;10.546;2023-01-28T10:08:35;78993.53;;;-147.06;63.52
54453;BME280;40363;52.270;10.546;2023-01-28T10:11:14;78987.34;;;-147.06;63.61
54453;BME280;40363;52.270;10.546;2023-01-28T10:13:45;78985.28;;;-147.06;63.23
54453;BME280;40363;52.270;10.546;2023-01-28T10:16:19;78964.72;;;-147.06;63.22
54453;BME280;40363;52.270;10.546;2023-01-28T10:18:55;78962.66;;;-147.06;63.25
54453;BME280;40363;52.270;10.546;2023-01-28T10:21:27;78962.66;;;-147.06;63.64
54453;BME280;40363;52.270;10.546;2023-01-28T10:24:00;78952.38;;;-147.06;64.05
54453;BME280;40363;52.270;10.546;2023-01-28T10:26:34;78952.38;;;-147.06;63.75
54453;BME280;40363;52.270;10.546;2023-01-28T10:29:11;78938.00;;;-147.06;63.57
54453;BME280;40363;52.270;10.546;2023-01-28T10:31:43;78927.72;;;-147.06;63.45
54453;BME280;40363;52.270;10.546;2023-01-28T10:34:14;78944.16;;;-147.06;63.79
54453;BME280;40363;52.270;10.546;2023-01-28T10:36:41;78948.28;;;-147.06;63.44
54453;BME280;40363;52.270;10.546;2023-01-28T10:39:09;78942.09;;;-147.06;63.64
54453;BME280;40363;52.270;10.546;2023-01-28T10:41:39;78944.16;;;-147.06;63.87
54453;BME280;40363;52.270;10.546;2023-01-28T10:44:12;78946.22;;;-147.06;63.90
54453;BME280;40363;52.270;10.546;2023-01-28T10:46:42;78952.38;;;-147.06;64.70
54453;BME280;40363;52.270;10.546;2023-01-28T10:49:17;78960.63;;;-147.06;63.92
54453;BME280;40363;52.270;10.546;2023-01-28T10:51:44;78972.94;;;-147.06;64.42
54453;BME280;40363;52.270;10.546;2023-01-28T10:54:17;78964.72;;;-147.06;64.20
54453;BME280;40363;52.270;10.546;2023-01-28T10:56:46;78956.50;;;-147.06;64.06
54453;BME280;40363;52.270;10.546;2023-01-28T10:59:21;78975.00;;;-147.06;64.28
54453;BME280;40363;52.270;10.546;2023-01-28T11:01:48;78983.25;;;-147.06;64.52
54453;BME280;40363;52.270;10.546;2023-01-28T11:04:21;78960.63;;;-147.06;64.31
54453;BME280;40363;52.270;10.546;2023-01-28T11:06:59;78948.28;;;-147.06;63.99
54453;BME280;40363;52.270;10.546;2023-01-28T11:09:57;78929.75;;;-147.06;63.87
54453;BME280;40363;52.270;10.546;2023-01-28T11:12:39;78921.53;;;-147.06;63.78
54453;BME280;40363;52.270;10.546;2023-01-28T11:15:22;78935.94;;;-147.06;63.60
54453;BME280;40363;52.270;10.546;2023-01-28T11:18:19;78933.88;;;-147.06;64.47
54453;BME280;40363;52.270;10.546;2023-01-28T11:21:27;78950.34;;;-147.06;63.88
54453;BME280;40363;52.270;10.546;2023-01-28T11:24:24;78970.91;;;-147.06;64.89
54453;BME280;40363;52.270;10.546;2023-01-28T11:26:57;78979.13;;;-147.06;64.55
54453;BME280;40363;52.270;10.546;2023-01-28T11:30:02;78987.34;;;-147.06;64.83
54453;BME280;40363;52.270;10.546;2023-01-28T11:35:55;78977.06;;;-147.06;63.89
54453;BME280;40363;52.270;10.546;2023-01-28T11:38:31;78979.13;;;-147.06;63.79
54453;BME280;40363;52.270;10.546;2023-01-28T11:41:12;78964.72;;;-147.06;64.16
54453;BME280;40363;52.270;10.546;2023-01-28T11:50:33;78925.66;;;-147.06;63.96
54453;BME280;40363;52.270;10.546;2023-01-28T12:00:28;78919.47;;;-147.06;62.96
54453;BME280;40363;52.270;10.546;2023-01-28T12:04:39;78919.47;;;-147.06;62.90
54453;BME280;40363;52.270;10.546;2023-01-28T12:07:13;78903.03;;;-147.06;63.20
54453;BME280;40363;52.270;10.546;2023-01-28T12:09:57;78898.91;;;-147.06;62.73
54453;BME280;40363;52.270;10.546;2023-01-28T12:12:48;78903.03;;;-147.06;62.96
54453;BME280;40363;52.270;10.546;2023-01-28T12:15:53;78898.91;;;-147.06;61.93
54453;BME280;40363;52.270;10.546;2023-01-28T12:18:48;78892.75;;;-147.06;62.60
54453;BME280;40363;52.270;10.546;2023-01-28T12:21:48;78870.13;;;-147.06;63.02
54453;BME280;40363;52.270;10.546;2023-01-28T12:24:41;78861.91;;;-147.06;62.14
54453;BME280;40363;52.270;10.546;2023-01-28T12:27:39;78874.25;;;-147.06;61.75
54453;BME280;40363;52.270;10.546;2023-01-28T12:31:03;78876.28;;;-147.06;60.94
54453;BME280;40363;52.270;10.546;2023-01-28T12:34:06;78878.34;;;-147.06;61.33
54453;BME280;40363;52.270;10.546;2023-01-28T12:36:50;78868.06;;;-147.06;61.74
54453;BME280;40363;52.270;10.546;2023-01-28T12:39:27;78851.63;;;-147.06;62.31
54453;BME280;40363;52.270;10.546;2023-01-28T12:42:03;78859.84;;;-147.06;61.59
54453;BME280;40363;52.270;10.546;2023-01-28T12:44:36;78872.19;;;-147.06;61.51
54453;BME280;40363;52.270;10.546;2023-01-28T12:47:08;78866.00;;;-147.06;61.56
54453;BME280;40363;52.270;10.546;2023-01-28T12:49:39;78857.78;;;-147.06;61.03
54453;BME280;40363;52.270;10.546;2023-01-28T12:52:12;78847.50;;;-147.06;60.90
54453;BME280;40363;52.270;10.546;2023-01-28T12:54:43;78861.91;;;-147.06;60.75
54453;BME280;40363;52.270;10.546;2023-01-28T12:57:18;78866.00;;;-147.06;61.26
54453;BME280;40363;52.270;10.546;2023-01-28T12:59:51;78894.81;;;-147.06;61.54
54453;BME280;40363;52.270;10.546;2023-01-28T13:02:30;78890.69;;;-147.06;62.41
54453;BME280;40363;52.270;10.546;2023-01-28T13:05:04;78874.25;;;-147.06;61.84
54453;BME280;40363;52.270;10.546;2023-01-28T13:07:40;78907.16;;;-147.06;62.02
54453;BME280;40363;52.270;10.546;2023-01-28T13:10:23;78915.38;;;-147.06;62.98